Time;durP1;ratioP1;P1;durP2;ratioP2;P2;SDS_P1;SDS_P2;PMS_P1;PMS_P2;Temp;Humidity;BMP_temperature;BMP_pressure;BME280_temperature;BME280_humidity;BME280_pressure;Samples;Min_cycle;Max_cycle;Signal;HPM_P1;HPM_P2
2022/08/28 00:01:34;;;;;;;43.88;29.98;;;18.80;99.90;;;;;;4994047;28;20299;-88
2022/08/28 00:04:00;;;;;;;36.17;29.48;;;18.80;99.90;;;;;;4993999;28;20179;-88
2022/08/28 00:06:27;;;;;;;35.33;29.15;;;18.80;99.90;;;;;;4994085;28;20255;-88
2022/08/28 00:08:53;;;;;;;31.20;27.77;;;18.80;99.90;;;;;;4993889;28;20179;-88
2022/08/28 00:11:20;;;;;;;31.00;27.48;;;18.70;99.90;;;;;;4993980;28;20203;-88
2022/08/28 00:13:47;;;;;;;40.75;30.65;;;18.70;99.90;;;;;;4993933;28;20249;-88
2022/08/28 00:16:13;;;;;;;39.80;31.95;;;18.70;99.90;;;;;;4994253;28;20180;-88
2022/08/28 00:18:39;;;;;;;40.38;31.85;;;18.70;99.90;;;;;;5010145;28;20186;-88
2022/08/28 00:21:05;;;;;;;42.17;31.38;;;18.70;99.90;;;;;;4993982;28;20313;-88
2022/08/28 00:23:32;;;;;;;33.95;29.08;;;18.60;99.90;;;;;;4994065;28;20190;-88
2022/08/28 00:25:59;;;;;;;31.58;27.50;;;18.60;99.90;;;;;;4993648;28;20238;-88
2022/08/28 00:28:25;;;;;;;31.33;28.00;;;18.60;99.90;;;;;;4993369;28;20183;-88
2022/08/28 00:30:53;;;;;;;32.85;28.95;;;18.60;99.90;;;;;;4993675;28;20211;-88
2022/08/28 00:33:24;;;;;;;33.55;29.90;;;18.60;99.90;;;;;;5010103;28;20219;-88
2022/08/28 00:35:50;;;;;;;32.13;28.73;;;18.60;99.90;;;;;;4993617;28;20221;-88
2022/08/28 00:38:18;;;;;;;34.35;30.65;;;18.50;99.90;;;;;;4993606;28;20198;-88
2022/08/28 00:40:46;;;;;;;36.20;32.35;;;18.50;99.90;;;;;;4993721;28;20191;-88
2022/08/28 00:43:40;;;;;;;33.78;29.98;;;18.50;99.90;;;;;;4993652;28;20621;-88
2022/08/28 00:46:10;;;;;;;36.55;32.53;;;18.50;99.90;;;;;;4990867;28;20187;-88
2022/08/28 00:48:36;;;;;;;38.35;32.33;;;18.50;99.90;;;;;;4993280;28;20179;-88
2022/08/28 00:53:49;;;;;;;37.58;30.90;;;18.50;99.90;;;;;;5009755;28;20211;-88
2022/08/28 00:56:18;;;;;;;43.60;33.70;;;18.50;99.90;;;;;;4993718;28;20179;-88
2022/08/28 00:58:46;;;;;;;36.15;31.33;;;18.50;99.90;;;;;;5009623;28;20179;-88
2022/08/28 01:01:13;;;;;;;39.70;33.95;;;18.50;99.90;;;;;;4993403;28;20274;-88
2022/08/28 01:03:40;;;;;;;38.78;33.80;;;18.50;99.90;;;;;;4993675;28;20247;-88
2022/08/28 01:06:09;;;;;;;37.10;31.65;;;18.40;99.90;;;;;;4993400;28;20225;-88
2022/08/28 01:08:37;;;;;;;41.80;34.80;;;18.40;99.90;;;;;;4993213;28;20184;-88
2022/08/28 01:11:06;;;;;;;41.65;33.72;;;18.40;99.90;;;;;;4996762;28;20207;-87
2022/08/28 01:13:33;;;;;;;45.13;35.67;;;18.40;99.90;;;;;;5013689;28;20206;-88
2022/08/28 01:16:00;;;;;;;42.78;34.30;;;18.40;99.90;;;;;;5013724;28;20180;-88
2022/08/28 01:18:26;;;;;;;44.92;35.92;;;18.40;99.90;;;;;;4996916;28;20171;-88
2022/08/28 01:21:25;;;;;;;41.40;34.42;;;18.40;99.90;;;;;;4997204;28;20657;-88
2022/08/28 01:24:07;;;;;;;41.50;34.35;;;18.40;99.90;;;;;;4972532;28;20253;-88
2022/08/28 01:26:34;;;;;;;42.35;34.90;;;18.50;99.90;;;;;;4996987;28;20198;-88
2022/08/28 01:29:01;;;;;;;42.22;35.60;;;18.50;99.90;;;;;;4997068;28;20179;-88
2022/08/28 01:31:30;;;;;;;42.33;35.58;;;18.50;99.90;;;;;;5013215;28;20234;-88
2022/08/28 01:33:58;;;;;;;42.45;35.17;;;18.50;99.90;;;;;;4996883;28;20246;-88
2022/08/28 01:36:24;;;;;;;45.58;36.60;;;18.50;99.90;;;;;;4997147;28;20202;-88
2022/08/28 01:38:57;;;;;;;48.28;36.17;;;18.60;99.90;;;;;;4996946;28;20187;-88
2022/08/28 01:41:24;;;;;;;40.20;32.28;;;18.50;99.90;;;;;;4997127;28;20195;-88
2022/08/28 01:43:50;;;;;;;42.58;32.95;;;18.40;99.90;;;;;;4997657;28;20175;-88
2022/08/28 01:46:16;;;;;;;44.67;36.83;;;18.50;99.90;;;;;;4997827;28;20183;-87
2022/08/28 01:48:43;;;;;;;42.78;35.28;;;18.50;99.90;;;;;;4997676;28;20342;-88
2022/08/28 01:51:10;;;;;;;41.00;34.90;;;18.50;99.90;;;;;;4997609;28;20202;-88
2022/08/28 01:53:37;;;;;;;38.17;32.42;;;18.50;99.90;;;;;;4997694;28;20199;-88
2022/08/28 01:56:07;;;;;;;37.72;33.63;;;18.50;99.90;;;;;;4997171;28;20171;-88
2022/08/28 01:58:34;;;;;;;39.20;32.47;;;18.50;99.90;;;;;;4996285;28;20183;-88
2022/08/28 02:01:00;;;;;;;35.45;31.58;;;18.40;99.90;;;;;;4996785;28;20250;-88
2022/08/28 02:03:26;;;;;;;39.33;32.70;;;18.40;99.90;;;;;;4996586;28;20278;-89
2022/08/28 02:05:53;;;;;;;42.03;35.55;;;18.40;99.90;;;;;;4996489;28;20329;-88
2022/08/28 02:08:19;;;;;;;47.92;36.67;;;18.40;99.90;;;;;;4995979;28;20255;-88
2022/08/28 02:10:46;;;;;;;41.78;33.30;;;18.40;99.90;;;;;;4996330;28;20219;-88
2022/08/28 02:13:12;;;;;;;45.30;35.25;;;18.40;99.90;;;;;;4996094;28;20242;-88
2022/08/28 02:15:40;;;;;;;41.10;33.67;;;18.40;99.90;;;;;;5012448;28;20176;-88
2022/08/28 02:18:06;;;;;;;44.15;35.42;;;18.30;99.90;;;;;;4996062;28;20184;-88
2022/08/28 02:20:32;;;;;;;41.00;34.35;;;18.30;99.90;;;;;;4995660;28;20183;-88
2022/08/28 02:22:59;;;;;;;42.85;33.83;;;18.30;99.90;;;;;;4995816;28;20191;-88
2022/08/28 02:25:26;;;;;;;41.85;32.88;;;18.30;99.90;;;;;;5012432;28;20195;-88
2022/08/28 02:27:53;;;;;;;43.45;35.75;;;18.30;99.90;;;;;;4995826;28;20187;-88
2022/08/28 02:30:19;;;;;;;40.88;34.47;;;18.30;99.90;;;;;;4995994;28;20184;-88
2022/08/28 02:32:45;;;;;;;41.60;34.88;;;18.40;99.90;;;;;;4995887;28;20230;-88
2022/08/28 02:35:14;;;;;;;39.22;31.25;;;18.40;99.90;;;;;;4996182;28;20653;-88
2022/08/28 02:37:43;;;;;;;42.10;36.03;;;18.40;99.90;;;;;;4995355;28;20213;-88
2022/08/28 02:40:10;;;;;;;42.63;33.75;;;18.40;99.90;;;;;;4995715;28;20176;-88
2022/08/28 02:42:36;;;;;;;34.35;29.92;;;18.40;99.90;;;;;;4995855;28;20206;-88
2022/08/28 02:45:02;;;;;;;34.85;31.05;;;18.40;99.90;;;;;;4995450;28;20556;-88
2022/08/28 02:47:28;;;;;;;40.95;34.60;;;18.40;99.90;;;;;;4995291;28;20215;-88
2022/08/28 02:49:54;;;;;;;39.25;33.28;;;18.50;99.90;;;;;;5011775;28;20211;-88
2022/08/28 02:52:21;;;;;;;38.30;32.45;;;18.40;99.90;;;;;;4995248;28;20215;-88
2022/08/28 02:54:47;;;;;;;38.30;31.77;;;18.40;99.90;;;;;;4995425;28;20183;-88
2022/08/28 02:57:13;;;;;;;40.63;33.67;;;18.40;99.90;;;;;;4995297;28;20279;-88
2022/08/28 02:59:39;;;;;;;39.25;32.10;;;18.40;99.90;;;;;;4995258;28;20198;-88
2022/08/28 03:02:06;;;;;;;39.38;33.88;;;18.40;99.90;;;;;;4995004;28;20207;-88
2022/08/28 03:04:36;;;;;;;39.42;33.05;;;18.50;99.90;;;;;;4995067;28;20192;-89
2022/08/28 03:07:06;;;;;;;34.65;30.40;;;18.50;99.90;;;;;;4995155;28;20187;-88
2022/08/28 03:09:32;;;;;;;37.88;31.92;;;18.60;99.90;;;;;;4995271;28;20175;-88
2022/08/28 03:11:57;;;;;;;35.22;29.85;;;18.60;99.90;;;;;;4995050;28;20206;-88
2022/08/28 03:14:25;;;;;;;36.78;29.83;;;18.60;99.90;;;;;;4995102;28;20183;-88
2022/08/28 03:16:51;;;;;;;36.55;31.50;;;18.50;99.90;;;;;;4994648;28;20183;-88
2022/08/28 03:19:17;;;;;;;31.98;28.55;;;18.50;99.90;;;;;;4994737;28;20201;-88
2022/08/28 03:21:43;;;;;;;34.00;30.27;;;18.50;99.90;;;;;;5011045;28;20231;-88
2022/08/28 03:24:09;;;;;;;32.28;28.50;;;18.40;99.90;;;;;;5011264;28;20238;-88
2022/08/28 03:26:35;;;;;;;37.63;31.17;;;18.50;99.90;;;;;;4994892;28;20198;-87
2022/08/28 03:29:01;;;;;;;35.45;31.17;;;18.50;99.90;;;;;;4994755;28;20187;-88
2022/08/28 03:31:31;;;;;;;36.78;32.75;;;18.60;99.90;;;;;;4994437;28;20198;-88
2022/08/28 03:33:58;;;;;;;35.25;31.15;;;18.60;99.90;;;;;;5010326;28;20302;-88
2022/08/28 03:36:26;;;;;;;38.80;34.25;;;18.60;99.90;;;;;;4994463;28;20180;-88
2022/08/28 03:38:55;;;;;;;37.92;33.78;;;18.60;99.90;;;;;;4994636;28;20183;-88
2022/08/28 03:41:23;;;;;;;36.65;30.77;;;18.60;99.90;;;;;;4994520;28;20199;-88
2022/08/28 03:43:50;;;;;;;39.83;32.10;;;18.60;99.90;;;;;;4994519;28;20207;-88
2022/08/28 03:46:22;;;;;;;43.65;34.35;;;18.50;99.90;;;;;;4994132;28;20198;-88
2022/08/28 03:48:49;;;;;;;39.05;32.83;;;18.50;99.90;;;;;;4994616;28;20190;-88
2022/08/28 03:51:18;;;;;;;41.67;33.25;;;18.50;99.90;;;;;;4994494;28;20290;-88
2022/08/28 03:53:45;;;;;;;38.33;32.28;;;18.50;99.90;;;;;;5010813;28;20206;-88
2022/08/28 03:56:16;;;;;;;32.45;28.75;;;18.50;99.90;;;;;;4994427;28;20187;-88
2022/08/28 03:58:42;;;;;;;33.08;27.48;;;18.50;99.90;;;;;;4993880;28;20191;-88
2022/08/28 04:01:09;;;;;;;38.42;32.15;;;18.50;99.90;;;;;;4993447;28;20207;-88
2022/08/28 04:03:35;;;;;;;38.72;31.45;;;18.50;99.90;;;;;;5010784;28;20179;-88
2022/08/28 04:06:01;;;;;;;38.47;32.58;;;18.50;99.90;;;;;;4994220;28;20207;-88
2022/08/28 04:08:28;;;;;;;39.67;31.80;;;18.50;99.90;;;;;;4993893;28;20191;-88
2022/08/28 04:10:55;;;;;;;38.72;33.28;;;18.40;99.90;;;;;;4994041;28;20697;-88
2022/08/28 04:13:22;;;;;;;39.15;32.28;;;18.50;99.90;;;;;;4993805;28;20426;-88
2022/08/28 04:16:09;;;;;;;41.08;33.33;;;18.50;99.90;;;;;;4994235;28;20277;-88
2022/08/28 04:18:37;;;;;;;33.03;29.42;;;18.50;99.90;;;;;;5010240;28;20193;-88
2022/08/28 04:21:07;;;;;;;34.33;29.55;;;18.40;99.90;;;;;;4993675;28;20195;-88
2022/08/28 04:23:35;;;;;;;38.42;33.28;;;18.40;99.90;;;;;;4993874;28;20183;-88
2022/08/28 04:26:04;;;;;;;40.13;33.78;;;18.40;99.90;;;;;;4993843;28;20686;-88
2022/08/28 04:28:31;;;;;;;35.15;30.35;;;18.40;99.90;;;;;;4993510;28;20197;-88
2022/08/28 04:30:57;;;;;;;35.17;31.02;;;18.40;99.90;;;;;;4994005;28;20207;-88
2022/08/28 04:33:25;;;;;;;37.25;33.00;;;18.40;99.90;;;;;;4993604;28;20221;-88
2022/08/28 04:35:51;;;;;;;40.53;33.78;;;18.40;99.90;;;;;;4993809;28;20179;-88
2022/08/28 04:38:17;;;;;;;41.83;35.08;;;18.40;99.90;;;;;;4993232;28;20188;-89
2022/08/28 04:40:44;;;;;;;37.47;31.83;;;18.40;99.90;;;;;;4993582;28;20207;-88
2022/08/28 04:43:10;;;;;;;39.10;33.25;;;18.40;99.90;;;;;;4993222;28;20249;-88
2022/08/28 04:45:42;;;;;;;37.88;31.67;;;18.40;99.90;;;;;;4993494;28;20183;-88
2022/08/28 04:48:09;;;;;;;38.95;31.85;;;18.40;99.90;;;;;;5009925;28;20183;-89
2022/08/28 04:50:40;;;;;;;36.00;32.10;;;18.50;99.90;;;;;;4993798;28;20355;-88
2022/08/28 04:53:06;;;;;;;37.42;32.13;;;18.50;99.90;;;;;;4993217;28;20358;-88
2022/08/28 04:55:32;;;;;;;35.10;29.98;;;18.50;99.90;;;;;;4993745;28;20175;-88
2022/08/28 04:57:58;;;;;;;34.58;29.75;;;18.50;99.90;;;;;;4993222;28;20190;-88
2022/08/28 05:00:24;;;;;;;34.20;30.45;;;18.50;99.90;;;;;;4992934;28;20258;-88
2022/08/28 05:02:50;;;;;;;35.05;29.90;;;18.50;99.90;;;;;;5009724;28;20186;-88
2022/08/28 05:05:16;;;;;;;35.45;28.40;;;18.60;99.90;;;;;;5011138;28;20171;-88
2022/08/28 05:07:42;;;;;;;36.13;30.83;;;18.60;99.90;;;;;;4993121;28;20187;-88
2022/08/28 05:10:08;;;;;;;32.40;28.38;;;18.60;99.90;;;;;;4993131;28;20191;-88
2022/08/28 05:12:35;;;;;;;32.13;28.38;;;18.70;99.90;;;;;;4993697;28;20211;-88
2022/08/28 05:15:02;;;;;;;32.83;27.65;;;18.70;99.90;;;;;;4993881;28;20201;-88
2022/08/28 05:17:29;;;;;;;27.17;24.30;;;18.60;99.90;;;;;;4994039;28;20171;-88
2022/08/28 05:19:55;;;;;;;29.48;26.27;;;18.60;99.90;;;;;;4994188;28;20278;-88
2022/08/28 05:22:20;;;;;;;36.70;32.65;;;18.60;99.90;;;;;;5010768;28;20278;-88
2022/08/28 05:24:46;;;;;;;39.35;33.50;;;18.60;99.90;;;;;;4994364;28;20550;-88
2022/08/28 05:27:12;;;;;;;33.55;28.70;;;18.70;99.90;;;;;;4993965;28;20179;-88
2022/08/28 05:29:38;;;;;;;34.70;29.80;;;18.70;99.90;;;;;;5009867;28;20214;-88
2022/08/28 05:32:04;;;;;;;32.42;28.90;;;18.70;99.90;;;;;;4992993;28;20196;-88
2022/08/28 05:34:30;;;;;;;33.28;29.70;;;18.70;99.90;;;;;;4993121;28;20175;-88
2022/08/28 05:36:56;;;;;;;30.67;27.13;;;18.70;99.90;;;;;;4992957;28;20278;-88
2022/08/28 05:39:22;;;;;;;34.28;28.63;;;18.70;99.90;;;;;;4993306;28;20179;-88
2022/08/28 05:41:48;;;;;;;32.45;27.77;;;18.70;99.90;;;;;;4993034;28;20207;-88
2022/08/28 05:44:16;;;;;;;34.70;27.80;;;18.70;99.90;;;;;;4993149;28;20234;-88
2022/08/28 05:46:43;;;;;;;33.25;26.10;;;18.70;99.90;;;;;;4992817;28;20194;-88
2022/08/28 05:49:09;;;;;;;30.73;27.30;;;18.80;99.90;;;;;;4993199;28;20179;-88
2022/08/28 05:51:35;;;;;;;31.83;26.73;;;18.80;99.90;;;;;;4993228;28;20244;-88
2022/08/28 05:54:02;;;;;;;30.90;26.25;;;18.80;99.90;;;;;;4993178;28;20215;-88
2022/08/28 05:56:32;;;;;;;31.00;26.38;;;18.80;99.90;;;;;;4995120;28;20637;-89
2022/08/28 05:59:00;;;;;;;35.55;28.40;;;18.90;99.90;;;;;;5002701;28;20175;-89
2022/08/28 06:01:29;;;;;;;31.73;27.65;;;18.90;99.90;;;;;;5009380;28;20203;-88
2022/08/28 06:03:58;;;;;;;35.88;29.45;;;18.90;99.90;;;;;;4996322;28;20195;-88
2022/08/28 06:06:26;;;;;;;35.65;27.95;;;19.00;99.90;;;;;;4996337;28;20633;-89
2022/08/28 06:09:02;;;;;;;30.65;26.85;;;19.00;99.90;;;;;;4996519;28;20179;-88
2022/08/28 06:11:29;;;;;;;27.40;23.38;;;19.00;99.90;;;;;;4996393;28;20199;-88
2022/08/28 06:13:56;;;;;;;27.83;24.60;;;19.00;99.90;;;;;;4996145;28;20226;-88
2022/08/28 06:16:22;;;;;;;34.28;29.77;;;19.00;99.90;;;;;;5012339;28;20191;-88
2022/08/28 06:18:49;;;;;;;30.42;25.58;;;19.00;99.90;;;;;;4995894;28;20179;-88
2022/08/28 06:21:15;;;;;;;29.70;26.48;;;19.00;99.90;;;;;;4996085;28;20195;-88
2022/08/28 06:23:42;;;;;;;31.52;27.05;;;19.00;99.90;;;;;;4996329;28;20245;-88
2022/08/28 06:26:07;;;;;;;29.45;25.65;;;19.10;99.90;;;;;;4995784;28;20207;-88
2022/08/28 06:28:33;;;;;;;28.63;24.73;;;19.10;99.90;;;;;;4995873;28;20222;-88
2022/08/28 06:31:02;;;;;;;32.78;27.92;;;19.10;99.90;;;;;;4995540;28;20209;-88
2022/08/28 06:33:29;;;;;;;29.48;25.00;;;19.20;99.90;;;;;;4995654;28;20210;-88
2022/08/28 06:35:55;;;;;;;30.95;26.52;;;19.20;99.90;;;;;;4995829;28;20180;-88
2022/08/28 06:38:24;;;;;;;28.40;24.83;;;19.30;99.90;;;;;;4995886;28;20178;-88
2022/08/28 06:40:55;;;;;;;28.08;24.48;;;19.30;99.90;;;;;;5011954;28;20194;-88
2022/08/28 06:43:24;;;;;;;30.75;26.73;;;19.30;99.90;;;;;;5011938;28;20254;-89
2022/08/28 06:45:53;;;;;;;28.38;24.95;;;19.30;99.90;;;;;;4995620;28;20179;-88
2022/08/28 06:48:22;;;;;;;25.20;22.50;;;19.40;99.90;;;;;;5011981;28;20191;-88
2022/08/28 06:50:50;;;;;;;32.50;25.77;;;19.40;99.90;;;;;;4995741;28;20223;-89
2022/08/28 06:53:18;;;;;;;27.35;23.58;;;19.40;99.90;;;;;;4995440;28;20211;-88
2022/08/28 06:55:54;;;;;;;29.90;25.60;;;19.40;99.90;;;;;;4995546;28;20183;-89
2022/08/28 06:58:20;;;;;;;28.92;25.67;;;19.50;99.90;;;;;;4995153;28;20190;-88
2022/08/28 07:00:46;;;;;;;29.08;24.67;;;19.50;99.90;;;;;;4995554;28;20661;-88
2022/08/28 07:03:12;;;;;;;27.08;24.15;;;19.60;99.90;;;;;;5011765;28;20206;-88
2022/08/28 07:05:38;;;;;;;29.02;22.95;;;19.60;99.90;;;;;;4995383;28;20186;-88
2022/08/28 07:08:04;;;;;;;24.58;21.13;;;19.60;99.90;;;;;;4995021;28;20184;-88
2022/08/28 07:10:30;;;;;;;25.92;22.88;;;19.70;99.90;;;;;;4994794;28;20183;-88
2022/08/28 07:12:57;;;;;;;25.77;21.95;;;19.80;99.90;;;;;;4994920;28;20680;-88
2022/08/28 07:15:23;;;;;;;27.23;23.17;;;19.80;99.90;;;;;;4995250;28;20186;-88
2022/08/28 07:17:50;;;;;;;25.38;22.55;;;19.90;99.90;;;;;;4994816;28;20716;-89
2022/08/28 07:20:16;;;;;;;29.50;25.05;;;20.00;99.90;;;;;;4994913;28;20214;-89
2022/08/28 07:22:42;;;;;;;24.92;21.85;;;20.00;99.90;;;;;;4994936;28;20187;-88
2022/08/28 07:25:10;;;;;;;27.85;23.75;;;20.00;99.90;;;;;;4994589;28;20249;-88
2022/08/28 07:27:37;;;;;;;23.02;20.58;;;20.10;99.90;;;;;;5010745;28;20187;-88
2022/08/28 07:30:05;;;;;;;28.05;23.35;;;20.20;99.90;;;;;;4994910;28;20289;-88
2022/08/28 07:32:32;;;;;;;27.42;24.45;;;20.20;99.90;;;;;;4994989;28;20210;-90
2022/08/28 07:34:58;;;;;;;25.02;22.13;;;20.20;99.90;;;;;;4994962;28;20668;-88
2022/08/28 07:37:25;;;;;;;27.00;21.63;;;20.30;99.90;;;;;;4994699;28;20179;-88
2022/08/28 07:39:51;;;;;;;25.75;22.58;;;20.40;99.90;;;;;;4994588;28;20360;-88
2022/08/28 07:45:01;;;;;;;23.55;20.90;;;20.40;99.90;;;;;;5011075;28;20190;-88
2022/08/28 07:47:31;;;;;;;25.65;21.25;;;20.50;99.90;;;;;;4994412;28;20190;-88
2022/08/28 07:49:59;;;;;;;25.33;21.98;;;20.50;99.90;;;;;;4994310;28;20187;-89
2022/08/28 07:52:28;;;;;;;20.60;18.40;;;20.50;99.90;;;;;;4994331;28;20211;-88
2022/08/28 07:54:56;;;;;;;20.90;18.70;;;20.60;99.90;;;;;;4994388;28;20226;-88
2022/08/28 07:57:22;;;;;;;23.42;20.83;;;20.60;99.90;;;;;;4994224;28;20273;-88
2022/08/28 07:59:48;;;;;;;21.77;18.05;;;20.60;99.90;;;;;;5010676;28;20179;-88
2022/08/28 08:02:15;;;;;;;25.25;20.65;;;20.70;99.90;;;;;;4993816;28;20203;-88
2022/08/28 08:04:41;;;;;;;21.27;18.17;;;20.60;99.90;;;;;;4994158;28;20183;-88
2022/08/28 08:07:07;;;;;;;23.90;19.35;;;20.60;99.90;;;;;;4993903;28;20183;-88
2022/08/28 08:09:38;;;;;;;19.45;17.45;;;20.70;99.90;;;;;;4994041;28;20190;-88
2022/08/28 08:12:05;;;;;;;22.50;19.33;;;20.60;99.90;;;;;;5010439;28;20202;-88
2022/08/28 08:14:31;;;;;;;18.58;16.33;;;20.70;99.90;;;;;;4994088;28;20254;-88
2022/08/28 08:17:01;;;;;;;22.55;17.23;;;20.70;99.90;;;;;;4978107;28;20214;-88
2022/08/28 08:19:27;;;;;;;19.48;16.55;;;20.60;99.90;;;;;;4993736;28;20179;-88
2022/08/28 08:21:53;;;;;;;19.90;15.38;;;20.60;99.90;;;;;;4993857;28;20210;-88
2022/08/28 08:24:19;;;;;;;17.23;13.60;;;20.70;99.90;;;;;;4993938;28;20179;-88
2022/08/28 08:26:50;;;;;;;18.95;14.95;;;20.80;99.90;;;;;;4993580;28;20218;-88
2022/08/28 08:29:16;;;;;;;17.40;15.00;;;20.90;99.90;;;;;;4993991;28;20183;-88
2022/08/28 08:31:42;;;;;;;16.08;14.38;;;21.10;99.90;;;;;;4993628;28;20211;-88
2022/08/28 08:34:08;;;;;;;18.90;16.25;;;21.20;99.90;;;;;;4993576;28;20240;-89
2022/08/28 08:36:36;;;;;;;17.55;15.00;;;21.20;99.90;;;;;;4993807;28;20241;-88
2022/08/28 08:39:05;;;;;;;16.50;14.63;;;21.30;99.90;;;;;;4993640;28;20199;-88
2022/08/28 08:41:38;;;;;;;14.88;12.80;;;21.40;99.90;;;;;;4993813;28;20195;-88
2022/08/28 08:44:08;;;;;;;21.63;17.00;;;21.60;99.90;;;;;;4993578;28;20179;-88
2022/08/28 08:46:45;;;;;;;15.85;13.88;;;21.50;99.90;;;;;;4993844;28;20179;-88
2022/08/28 08:49:24;;;;;;;14.50;12.55;;;21.50;99.90;;;;;;4993947;28;20184;-88
2022/08/28 08:52:20;;;;;;;18.05;15.02;;;21.60;99.90;;;;;;4994531;28;20203;-89
2022/08/28 08:54:58;;;;;;;16.17;13.32;;;21.60;99.90;;;;;;4994501;28;20187;-88
2022/08/28 08:57:27;;;;;;;14.75;13.25;;;21.70;99.90;;;;;;5010871;28;20179;-88
2022/08/28 08:59:53;;;;;;;15.63;12.98;;;21.70;99.90;;;;;;4994597;28;20258;-88
2022/08/28 09:02:22;;;;;;;17.27;13.90;;;21.80;99.90;;;;;;5010102;28;20278;-88
2022/08/28 09:05:06;;;;;;;17.52;14.82;;;21.60;99.90;;;;;;4993695;28;20180;-88
2022/08/28 09:08:03;;;;;;;16.95;15.13;;;21.70;99.90;;;;;;4993361;28;20175;-88
2022/08/28 09:10:47;;;;;;;16.45;14.85;;;21.60;99.90;;;;;;5009256;28;20191;-88
2022/08/28 09:13:38;;;;;;;17.63;14.70;;;21.60;99.90;;;;;;4993317;28;20199;-88
2022/08/28 09:16:16;;;;;;;20.75;16.50;;;21.60;99.90;;;;;;5009680;28;20269;-89
2022/08/28 09:18:42;;;;;;;16.25;14.30;;;21.70;99.90;;;;;;4992997;28;20267;-89
2022/08/28 09:21:08;;;;;;;15.98;13.27;;;21.70;99.90;;;;;;4993228;28;20226;-88
2022/08/28 09:23:34;;;;;;;16.48;13.05;;;22.00;99.90;;;;;;4993403;28;20187;-89
2022/08/28 09:26:11;;;;;;;13.90;12.40;;;22.30;99.90;;;;;;4992956;28;20194;-88
2022/08/28 09:28:39;;;;;;;16.02;14.10;;;22.50;99.90;;;;;;5009500;28;20186;-88
2022/08/28 09:31:11;;;;;;;17.70;14.82;;;22.60;99.90;;;;;;4995248;28;20294;-89
2022/08/28 09:33:44;;;;;;;16.15;14.45;;;22.60;99.90;;;;;;4997140;28;20233;-88
2022/08/28 09:36:31;;;;;;;13.55;12.20;;;22.80;99.90;;;;;;4996907;28;20326;-88
2022/08/28 09:39:12;;;;;;;14.30;12.90;;;23.30;99.90;;;;;;4996685;28;20175;-88
2022/08/28 09:44:26;;;;;;;13.82;11.60;;;23.20;99.90;;;;;;5013238;28;20179;-88
2022/08/28 09:46:52;;;;;;;12.95;11.55;;;23.20;99.90;;;;;;4996499;28;20188;-89
2022/08/28 09:49:27;;;;;;;14.63;11.98;;;23.20;99.90;;;;;;4996625;28;20194;-89
2022/08/28 09:51:54;;;;;;;13.40;11.77;;;23.40;99.90;;;;;;4996901;28;20213;-88
2022/08/28 09:54:38;;;;;;;12.32;11.18;;;23.60;99.90;;;;;;4996669;28;20214;-89
2022/08/28 09:57:04;;;;;;;14.70;12.77;;;23.80;99.90;;;;;;4996240;28;20186;-89
2022/08/28 09:59:30;;;;;;;13.70;11.35;;;24.00;99.90;;;;;;4996465;28;20183;-88
2022/08/28 10:02:09;;;;;;;11.75;10.35;;;24.10;99.90;;;;;;4995918;28;20199;-88
2022/08/28 10:05:15;;;;;;;10.63;9.43;;;24.10;99.90;;;;;;5012851;28;20194;-88
2022/08/28 10:07:57;;;;;;;11.63;10.52;;;23.80;99.90;;;;;;4995971;28;20221;-88
2022/08/28 10:10:38;;;;;;;9.85;8.85;;;23.70;99.90;;;;;;4996717;28;20255;-88
2022/08/28 10:13:18;;;;;;;12.48;10.25;;;23.80;99.90;;;;;;4996308;28;20210;-88
2022/08/28 10:15:59;;;;;;;10.23;9.05;;;23.70;99.90;;;;;;5012707;28;20183;-88
2022/08/28 10:18:44;;;;;;;11.05;9.27;;;23.80;99.90;;;;;;4995989;28;20181;-88
2022/08/28 10:21:27;;;;;;;12.48;11.18;;;23.70;99.90;;;;;;4996069;28;20202;-88
2022/08/28 10:24:26;;;;;;;10.55;9.45;;;23.80;99.90;;;;;;4996110;28;20191;-88
2022/08/28 10:27:25;;;;;;;10.88;9.77;;;23.90;99.90;;;;;;4996108;28;20242;-88
2022/08/28 10:30:06;;;;;;;11.80;9.73;;;24.00;99.90;;;;;;4980292;28;20187;-89
2022/08/28 10:33:01;;;;;;;11.52;9.32;;;24.10;99.90;;;;;;4995643;28;20242;-89
2022/08/28 10:35:48;;;;;;;10.48;9.40;;;24.10;99.90;;;;;;5011650;28;20171;-90
2022/08/28 10:38:18;;;;;;;12.05;10.27;;;23.90;99.90;;;;;;4998691;28;20241;-89
2022/08/28 10:41:25;;;;;;;11.27;9.43;;;23.80;99.90;;;;;;4995923;28;20203;-89
2022/08/28 10:43:54;;;;;;;10.27;8.45;;;23.70;99.90;;;;;;4936722;29;20185;-89
2022/08/28 10:46:39;;;;;;;10.50;9.50;;;23.90;99.90;;;;;;4936729;29;20181;-88
2022/08/28 10:49:19;;;;;;;11.38;9.18;;;23.90;99.90;;;;;;4974272;28;20218;-88
2022/08/28 10:51:53;;;;;;;11.68;9.38;;;23.90;99.90;;;;;;4996022;28;20203;-88
2022/08/28 10:54:26;;;;;;;10.05;8.95;;;24.10;99.90;;;;;;4995747;28;20240;-89
2022/08/28 10:57:07;;;;;;;9.75;8.77;;;24.40;99.90;;;;;;4995290;28;20274;-88
2022/08/28 10:59:34;;;;;;;9.85;8.07;;;24.70;99.90;;;;;;4995214;28;20218;-89
2022/08/28 11:02:03;;;;;;;9.25;8.35;;;25.10;99.90;;;;;;4994791;28;20200;-89
2022/08/28 11:04:29;;;;;;;9.10;7.70;;;25.40;99.90;;;;;;4995534;28;20179;-88
2022/08/28 11:07:06;;;;;;;8.75;7.88;;;25.40;99.90;;;;;;4995045;28;20179;-88
2022/08/28 11:09:38;;;;;;;7.85;7.15;;;25.60;99.90;;;;;;4995477;28;20293;-89
2022/08/28 11:12:26;;;;;;;9.38;8.02;;;25.70;99.90;;;;;;4994851;28;20222;-89
2022/08/28 11:14:52;;;;;;;7.35;6.60;;;25.60;99.90;;;;;;4996127;28;20238;-88
2022/08/28 11:17:24;;;;;;;8.38;7.55;;;25.60;99.90;;;;;;4995406;28;20281;-89
2022/08/28 11:20:06;;;;;;;7.68;6.90;;;25.60;99.90;;;;;;4995297;28;20183;-89
2022/08/28 11:22:51;;;;;;;8.82;7.47;;;25.60;99.90;;;;;;5011250;28;20298;-89
2022/08/28 11:25:42;;;;;;;8.93;7.93;;;25.70;99.90;;;;;;4995101;28;20206;-89
2022/08/28 11:28:23;;;;;;;8.00;7.07;;;26.00;99.90;;;;;;4994884;28;20219;-89
2022/08/28 11:31:04;;;;;;;7.70;7.00;;;26.00;99.90;;;;;;4994718;28;20302;-89
2022/08/28 11:33:47;;;;;;;8.18;7.38;;;26.20;99.90;;;;;;4994624;28;20218;-88
2022/08/28 11:36:19;;;;;;;9.50;7.50;;;26.20;99.90;;;;;;4994848;28;20183;-89
2022/08/28 11:38:51;;;;;;;7.80;7.07;;;26.40;99.90;;;;;;4994518;28;20237;-89
2022/08/28 11:41:25;;;;;;;7.88;6.80;;;26.60;99.90;;;;;;5010783;28;20195;-89
2022/08/28 11:44:12;;;;;;;6.65;5.80;;;26.80;99.90;;;;;;4994770;28;20186;-88
2022/08/28 11:46:44;;;;;;;7.20;6.28;;;27.00;99.90;;;;;;4994618;28;20230;-89
2022/08/28 11:49:25;;;;;;;6.88;6.28;;;27.10;99.90;;;;;;4994210;28;20183;-89
2022/08/28 11:52:13;;;;;;;6.90;6.30;;;27.20;99.90;;;;;;4994358;28;20207;-89
2022/08/28 11:54:54;;;;;;;6.85;6.20;;;27.40;99.90;;;;;;4993851;28;20191;-89
2022/08/28 11:57:44;;;;;;;6.30;5.70;;;27.60;99.90;;;;;;4994515;28;20179;-89
2022/08/28 12:00:49;;;;;;;8.32;6.03;;;27.90;99.90;;;;;;4994355;28;20236;-88
2022/08/28 12:03:34;;;;;;;6.70;6.10;;;27.80;99.90;;;;;;4980699;28;20191;-88
2022/08/28 12:06:01;;;;;;;6.28;5.68;;;27.90;99.90;;;;;;4994501;28;20202;-89
2022/08/28 12:08:52;;;;;;;6.07;5.38;;;28.00;99.90;;;;;;4993855;28;20171;-89
2022/08/28 12:11:39;;;;;;;6.65;5.95;;;28.20;99.90;;;;;;4994357;28;20259;-88
2022/08/28 12:14:11;;;;;;;6.07;5.47;;;28.40;99.90;;;;;;4994352;28;20285;-89
2022/08/28 12:17:02;;;;;;;7.07;5.45;;;28.30;99.90;;;;;;4994167;28;20187;-90
2022/08/28 12:19:54;;;;;;;6.53;5.93;;;28.10;99.90;;;;;;4994433;28;20209;-88
2022/08/28 12:22:25;;;;;;;6.57;5.55;;;28.30;99.90;;;;;;4994369;28;20298;-89
2022/08/28 12:24:58;;;;;;;6.30;5.70;;;28.10;99.90;;;;;;4994885;28;20191;-88
2022/08/28 12:27:25;;;;;;;7.38;5.45;;;28.20;99.90;;;;;;4994687;28;20190;-89
2022/08/28 12:29:57;;;;;;;5.68;5.07;;;28.10;99.90;;;;;;4995293;28;20191;-89
2022/08/28 12:32:23;;;;;;;6.07;5.53;;;27.80;99.90;;;;;;4995009;28;20226;-88
2022/08/28 12:34:58;;;;;;;6.07;5.15;;;27.30;99.90;;;;;;4994815;28;20249;-89
2022/08/28 12:37:31;;;;;;;6.63;5.93;;;27.10;99.90;;;;;;4994400;28;20178;-89
2022/08/28 12:40:22;;;;;;;6.20;5.30;;;27.00;99.90;;;;;;5005164;28;20183;-89
2022/08/28 12:43:05;;;;;;;6.22;5.72;;;27.10;99.90;;;;;;4980975;28;20217;-89
2022/08/28 12:45:47;;;;;;;6.63;5.65;;;27.30;99.90;;;;;;5010360;28;20183;-89
2022/08/28 12:48:22;;;;;;;5.85;5.35;;;27.50;99.90;;;;;;4993394;28;20185;-89
2022/08/28 12:51:07;;;;;;;7.57;5.57;;;27.60;99.90;;;;;;4993896;28;20226;-89
2022/08/28 12:53:39;;;;;;;6.97;5.75;;;27.80;99.90;;;;;;4993774;28;20214;-89
2022/08/28 12:56:08;;;;;;;7.05;5.18;;;28.10;99.90;;;;;;4993547;28;20657;-89
2022/08/28 12:58:38;;;;;;;5.60;5.10;;;28.10;99.90;;;;;;4993257;28;20183;-89